Time;durP1;ratioP1;P1;durP2;ratioP2;P2;SDS_P1;SDS_P2;PMS_P1;PMS_P2;Temp;Humidity;BMP_temperature;BMP_pressure;BME280_temperature;BME280_humidity;BME280_pressure;Samples;Min_cycle;Max_cycle;Signal;HPM_P1;HPM_P2
2022/07/20 00:01:07;;;;;;;6.50;3.10;;;;;;;17.86;55.02;99386.09;4965207;28;20181;-86
2022/07/20 00:03:33;;;;;;;5.90;3.03;;;;;;;20.47;55.30;99839.56;4956469;28;20228;-87
2022/07/20 00:05:58;;;;;;;5.27;3.13;;;;;;;19.29;55.64;99660.75;4956577;29;20255;-87
2022/07/20 00:11:20;;;;;;;6.40;3.87;;;;;;;20.27;58.46;99841.06;4966098;28;20187;-86
2022/07/20 00:13:57;;;;;;;6.13;3.47;;;;;;;19.63;61.43;99764.81;4975148;28;20236;-86
2022/07/20 00:16:25;;;;;;;6.97;3.70;;;;;;;19.81;64.83;99837.00;4990674;28;20167;-86
2022/07/20 00:18:50;;;;;;;4.50;3.53;;;;;;;17.79;65.56;99509.78;4977318;28;20182;-86
2022/07/20 00:21:16;;;;;;;5.60;4.00;;;;;;;17.90;68.07;99597.91;4964311;28;20263;-86
2022/07/20 00:23:42;;;;;;;8.10;4.03;;;;;;;19.20;70.38;99843.75;4954872;28;20622;-86
2022/07/20 00:26:08;;;;;;;7.30;4.20;;;;;;;15.90;73.29;99347.53;4955151;28;20678;-86
2022/07/20 00:28:33;;;;;;;7.17;4.30;;;;;;;16.33;77.35;99518.75;4954581;29;20199;-86
2022/07/20 00:30:59;;;;;;;7.63;4.13;;;;;;;16.11;77.95;99485.03;4964562;28;20190;-85
2022/07/20 00:33:24;;;;;;;7.83;4.50;;;;;;;18.14;78.86;99834.09;4974480;28;20629;-85
2022/07/20 00:35:50;;;;;;;6.93;3.93;;;;;;;15.32;76.93;99345.31;4955927;28;20191;-85
2022/07/20 00:38:16;;;;;;;5.27;4.20;;;;;;;18.29;76.86;99836.94;4954839;28;20175;-85
2022/07/20 00:40:42;;;;;;;6.23;4.20;;;;;;;17.03;76.79;99648.19;4962794;28;20179;-85
2022/07/20 00:43:07;;;;;;;8.13;4.40;;;;;;;17.56;75.97;99697.97;4974191;28;20164;-86
2022/07/20 00:45:33;;;;;;;5.60;4.23;;;;;;;18.53;75.98;99853.69;4973917;28;20195;-86
2022/07/20 00:47:58;;;;;;;6.03;4.20;;;;;;;16.99;75.45;99573.09;4974570;28;20310;-85
2022/07/20 00:50:24;;;;;;;7.80;4.27;;;;;;;17.04;75.10;99565.50;4965509;28;20759;-85
2022/07/20 00:52:50;;;;;;;7.20;4.23;;;;;;;18.88;75.02;99849.19;4958524;28;20172;-85
2022/07/20 00:55:16;;;;;;;5.87;4.00;;;;;;;18.31;72.86;99747.28;4959919;28;20165;-86
2022/07/20 00:57:41;;;;;;;5.67;3.77;;;;;;;16.17;72.88;99377.91;4955893;28;20184;-85
2022/07/20 01:00:09;;;;;;;9.70;4.03;;;;;;;18.34;73.65;99766.97;4972811;28;20183;-86
2022/07/20 01:02:35;;;;;;;6.27;4.00;;;;;;;17.45;73.53;99609.81;4974159;28;20239;-85
2022/07/20 01:05:00;;;;;;;8.73;3.97;;;;;;;16.29;72.10;99406.22;4973469;28;20192;-86
2022/07/20 01:07:26;;;;;;;7.27;4.27;;;;;;;17.03;73.49;99559.50;4988849;28;20168;-85
2022/07/20 01:09:51;;;;;;;6.53;4.10;;;;;;;18.13;73.93;99755.47;4958719;28;20172;-85
2022/07/20 01:12:17;;;;;;;5.97;3.83;;;;;;;17.18;73.67;99593.91;4954693;28;20620;-85
2022/07/20 01:14:43;;;;;;;5.90;4.00;;;;;;;17.60;76.39;99736.47;4985573;28;20215;-85
2022/07/20 01:17:08;;;;;;;8.73;4.57;;;;;;;18.35;76.14;99848.19;4954650;28;20168;-86
2022/07/20 01:19:33;;;;;;;6.27;4.30;;;;;;;17.46;75.77;99678.09;4966051;28;20172;-85
2022/07/20 01:21:59;;;;;;;5.10;4.03;;;;;;;18.50;73.57;99815.16;4973358;28;20168;-85
2022/07/20 01:24:24;;;;;;;5.67;4.13;;;;;;;16.44;72.93;99458.53;4972489;28;20218;-85
2022/07/20 01:26:50;;;;;;;6.27;4.30;;;;;;;16.41;71.89;99444.81;4973504;28;20175;-85
2022/07/20 01:29:15;;;;;;;7.07;4.23;;;;;;;15.51;72.63;99314.34;4972765;28;20172;-85
2022/07/20 01:31:41;;;;;;;9.87;4.77;;;;;;;17.66;73.18;99708.41;4988516;28;20168;-86
2022/07/20 01:34:07;;;;;;;5.57;4.07;;;;;;;15.91;73.29;99407.97;4988336;28;20267;-86
2022/07/20 01:36:32;;;;;;;7.83;4.17;;;;;;;18.21;73.09;99825.66;4974156;28;20168;-86
2022/07/20 01:38:58;;;;;;;6.13;4.10;;;;;;;17.50;73.43;99698.66;4967462;28;20173;-86
2022/07/20 01:41:24;;;;;;;5.53;4.03;;;;;;;17.38;72.70;99682.22;4954755;28;20176;-86
2022/07/20 01:43:49;;;;;;;5.90;4.13;;;;;;;15.55;73.59;99385.00;4954885;28;20183;-86
2022/07/20 01:46:15;;;;;;;8.40;4.60;;;;;;;17.46;73.79;99711.38;4955136;28;20251;-86
2022/07/20 01:48:42;;;;;;;6.47;4.23;;;;;;;16.43;73.77;99509.59;4970655;28;20179;-85
2022/07/20 01:51:07;;;;;;;5.67;4.60;;;;;;;16.32;73.58;99482.94;4973954;28;20252;-86
2022/07/20 01:53:33;;;;;;;7.80;5.40;;;;;;;16.39;74.14;99512.94;4973746;28;20195;-85
2022/07/20 01:55:58;;;;;;;8.07;5.10;;;;;;;17.90;76.35;99823.34;4973501;28;20224;-86
2022/07/20 01:58:24;;;;;;;7.27;5.20;;;;;;;17.05;77.42;99693.44;4959049;28;20189;-86
2022/07/20 02:00:50;;;;;;;7.27;5.20;;;;;;;16.09;79.87;99573.53;4954708;29;20211;-86
2022/07/20 02:03:17;;;;;;;8.37;5.10;;;;;;;17.15;79.99;99740.56;4953924;28;20220;-86
2022/07/20 02:05:42;;;;;;;9.37;5.10;;;;;;;17.77;78.50;99820.47;4954576;29;20193;-88
2022/07/20 02:08:08;;;;;;;8.27;5.40;;;;;;;17.57;79.80;99807.25;4966082;28;20175;-85
2022/07/20 02:10:34;;;;;;;8.20;5.33;;;;;;;17.82;79.09;99822.31;4973228;28;20243;-86
2022/07/20 02:12:59;;;;;;;10.07;6.30;;;;;;;16.00;80.34;99558.84;4973968;28;20814;-87
2022/07/20 02:18:11;;;;;;;12.70;6.97;;;;;;;15.77;85.64;99565.03;4961724;28;20207;-86
2022/07/20 02:20:37;;;;;;;10.53;6.43;;;;;;;16.45;87.22;99676.63;4957297;28;20169;-86
2022/07/20 02:23:04;;;;;;;9.13;6.67;;;;;;;16.76;86.32;99701.25;4953681;29;20640;-85
2022/07/20 02:25:30;;;;;;;8.93;6.40;;;;;;;15.80;89.05;99590.66;4954629;28;20204;-87
2022/07/20 02:27:56;;;;;;;9.90;6.80;;;;;;;17.26;90.00;99807.31;4954818;28;20626;-86
2022/07/20 02:30:22;;;;;;;11.57;7.47;;;;;;;14.16;93.06;99309.97;4954324;29;20168;-88
2022/07/20 02:32:47;;;;;;;11.43;7.60;;;;;;;14.99;100.00;99500.88;4954149;29;20184;-86
2022/07/20 02:35:13;;;;;;;9.43;7.30;;;;;;;14.77;100.00;99490.91;4953736;28;20244;-87
2022/07/20 02:37:38;;;;;;;9.60;7.33;;;;;;;16.70;100.00;99803.41;4961619;28;20321;-85
2022/07/20 02:40:04;;;;;;;10.33;7.17;;;;;;;14.61;100.00;99430.97;4973634;28;20187;-84
2022/07/20 02:42:30;;;;;;;11.17;7.70;;;;;;;16.01;100.00;99677.19;4977917;28;20278;-85
2022/07/20 02:44:55;;;;;;;13.63;7.63;;;;;;;14.60;100.00;99428.41;4973856;28;20228;-86
2022/07/20 02:47:21;;;;;;;13.37;7.30;;;;;;;16.29;99.15;99730.69;4968655;28;20643;-86
2022/07/20 02:49:46;;;;;;;11.87;7.17;;;;;;;16.17;99.49;99699.75;4953685;29;20192;-86
2022/07/20 02:52:11;;;;;;;12.67;7.63;;;;;;;16.11;99.11;99674.03;4954832;28;20180;-87
2022/07/20 02:54:37;;;;;;;9.60;6.87;;;;;;;13.82;100.00;99317.44;4953427;28;20170;-86
2022/07/20 02:57:02;;;;;;;14.33;7.40;;;;;;;14.01;100.00;99396.06;4954109;28;20169;-85
2022/07/20 02:59:28;;;;;;;12.47;7.90;;;;;;;15.14;100.00;99571.81;4974567;28;20167;-85
2022/07/20 03:01:53;;;;;;;13.60;7.93;;;;;;;15.84;100.00;99720.13;4976050;28;20579;-85
2022/07/20 03:04:19;;;;;;;13.33;7.37;;;;;;;13.96;100.00;99436.66;4974639;28;20203;-85
2022/07/20 03:06:44;;;;;;;11.40;7.30;;;;;;;14.98;100.00;99573.06;4975900;28;20160;-84
2022/07/20 03:09:09;;;;;;;11.43;7.60;;;;;;;14.92;100.00;99500.63;4957375;28;20184;-85
2022/07/20 03:11:35;;;;;;;14.10;7.60;;;;;;;14.71;100.00;99473.75;4956279;29;20216;-85
2022/07/20 03:14:00;;;;;;;11.80;7.43;;;;;;;13.44;100.00;99308.66;4956616;28;20168;-87
2022/07/20 03:16:26;;;;;;;13.03;7.23;;;;;;;15.19;100.00;99547.31;4957479;28;20168;-88
2022/07/20 03:18:51;;;;;;;14.20;7.90;;;;;;;13.70;97.91;99261.13;4973288;28;20182;-87
2022/07/20 03:21:17;;;;;;;13.13;7.20;;;;;;;16.91;97.09;99832.06;4978373;28;20645;-87
2022/07/20 03:23:45;;;;;;;13.10;7.10;;;;;;;15.63;99.28;99643.81;4978643;28;20539;-87
2022/07/20 03:26:10;;;;;;;11.87;7.10;;;;;;;14.57;97.52;99441.91;4977677;28;20200;-87
2022/07/20 03:28:36;;;;;;;9.60;7.57;;;;;;;16.85;97.95;99811.44;4962570;28;20178;-86
2022/07/20 03:31:01;;;;;;;10.20;7.10;;;;;;;15.16;98.63;99540.41;4955864;29;20629;-87
2022/07/20 03:33:27;;;;;;;10.60;7.53;;;;;;;16.09;97.04;99683.34;4958049;29;20224;-87
2022/07/20 03:35:52;;;;;;;14.90;10.17;;;;;;;15.59;97.91;99560.34;4957707;29;20604;-87
2022/07/20 03:38:18;;;;;;;12.70;8.27;;;;;;;15.12;96.65;99457.03;4959785;28;20685;-87
2022/07/20 03:40:43;;;;;;;13.83;8.17;;;;;;;14.96;98.93;99448.94;4956493;29;20176;-86
2022/07/20 03:43:11;;;;;;;11.53;8.00;;;;;;;13.29;100.00;99189.59;4956203;28;20223;-86
2022/07/20 03:45:37;;;;;;;13.17;8.27;;;;;;;15.73;97.19;99563.25;4956844;29;20200;-89
2022/07/20 03:48:03;;;;;;;16.83;8.53;;;;;;;17.34;96.44;99818.59;4958907;28;20180;-86
2022/07/20 03:50:28;;;;;;;11.30;8.00;;;;;;;14.72;98.59;99421.09;4955909;29;20223;-87
2022/07/20 03:52:55;;;;;;;10.57;8.00;;;;;;;13.03;100.00;99198.94;4957379;29;20179;-86
2022/07/20 03:55:20;;;;;;;19.27;8.70;;;;;;;15.75;100.00;99648.38;4955524;29;20181;-85
2022/07/20 03:57:46;;;;;;;23.97;8.37;;;;;;;15.16;100.00;99521.75;4961796;28;20173;-87
2022/07/20 04:00:12;;;;;;;11.43;8.10;;;;;;;16.98;99.38;99819.44;4974595;28;20254;-88
2022/07/20 04:02:37;;;;;;;12.17;7.90;;;;;;;14.31;95.32;99333.28;4976216;28;20259;-85
2022/07/20 04:05:03;;;;;;;10.33;7.90;;;;;;;15.72;93.91;99561.53;4975763;28;20215;-85
2022/07/20 04:07:28;;;;;;;12.53;7.10;;;;;;;16.55;92.60;99691.38;4973109;28;20274;-86
2022/07/20 04:09:54;;;;;;;9.40;7.53;;;;;;;15.31;92.91;99491.53;4956566;28;20175;-86
2022/07/20 04:12:23;;;;;;;10.43;7.70;;;;;;;16.36;92.69;99667.03;4957334;28;20179;-86
2022/07/20 04:14:50;;;;;;;8.83;6.90;;;;;;;15.04;93.67;99439.78;4952764;28;20287;-88
2022/07/20 04:17:16;;;;;;;9.13;6.70;;;;;;;15.63;92.83;99520.47;4977549;28;20227;-87
2022/07/20 04:19:42;;;;;;;9.23;6.50;;;;;;;13.70;90.65;99155.16;4975381;28;20192;-87
2022/07/20 04:22:08;;;;;;;10.33;6.43;;;;;;;17.14;90.95;99743.94;4974676;28;20250;-90
2022/07/20 04:24:34;;;;;;;10.03;6.30;;;;;;;17.45;94.71;99835.06;4989755;28;20218;-88
2022/07/20 04:27:00;;;;;;;8.80;6.00;;;;;;;16.40;95.98;99657.72;4989611;28;20282;-88
2022/07/20 04:29:25;;;;;;;11.23;6.33;;;;;;;15.07;92.80;99388.88;4962886;28;20611;-89
2022/07/20 04:31:51;;;;;;;11.57;6.30;;;;;;;16.98;92.02;99722.25;4967503;28;20188;-88
2022/07/20 04:34:17;;;;;;;10.77;6.30;;;;;;;17.63;88.77;99766.41;4972734;28;20187;-89
2022/07/20 04:36:46;;;;;;;9.70;6.10;;;;;;;17.71;86.82;99738.41;4959120;28;20196;-86
2022/07/20 04:39:12;;;;;;;9.73;6.10;;;;;;;17.36;88.24;99694.94;4964506;28;20184;-87
2022/07/20 04:41:37;;;;;;;8.97;6.00;;;;;;;17.80;87.12;99757.34;4969283;28;20176;-88
2022/07/20 04:44:03;;;;;;;10.77;6.10;;;;;;;15.63;83.24;99332.44;4968073;28;20188;-88
2022/07/20 04:46:31;;;;;;;11.23;5.80;;;;;;;18.63;80.31;99837.63;4985572;28;20705;-89
2022/07/20 04:48:57;;;;;;;8.17;5.93;;;;;;;16.83;77.02;99465.31;4984401;28;20219;-88
2022/07/20 04:51:25;;;;;;;9.43;5.77;;;;;;;17.89;74.70;99621.78;4964745;28;20191;-90
2022/07/20 04:53:51;;;;;;;8.33;5.87;;;;;;;17.67;75.27;99614.53;4992496;28;20249;-87
2022/07/20 04:56:18;;;;;;;7.93;5.53;;;;;;;17.34;77.18;99603.63;4991041;28;20199;-86
2022/07/20 04:58:52;;;;;;;8.50;6.00;;;;;;;18.27;75.45;99713.03;4990023;28;20245;-84
2022/07/20 05:01:19;;;;;;;7.70;5.90;;;;;;;18.20;74.90;99695.81;4988539;28;20245;-87
2022/07/20 05:03:45;;;;;;;9.80;5.77;;;;;;;18.13;74.53;99642.72;4997165;28;20265;-86
2022/07/20 05:06:11;;;;;;;7.93;5.83;;;;;;;16.27;74.27;99367.03;4983726;28;20222;-89
2022/07/20 05:08:36;;;;;;;9.70;5.90;;;;;;;19.44;73.34;99843.34;4990289;28;20665;-88
2022/07/20 05:11:01;;;;;;;10.60;6.23;;;;;;;18.52;71.59;99698.09;4974803;28;20219;-88
2022/07/20 05:13:27;;;;;;;7.17;5.40;;;;;;;16.33;70.62;99362.03;4991828;28;20187;-87
2022/07/20 05:15:52;;;;;;;6.40;5.30;;;;;;;18.97;71.03;99798.91;4977429;28;20235;-89
2022/07/20 05:18:18;;;;;;;8.03;5.70;;;;;;;19.42;69.68;99827.00;4990562;28;20202;-89
2022/07/20 05:20:43;;;;;;;6.97;5.47;;;;;;;19.19;68.31;99733.38;4990768;28;20215;-89
2022/07/20 05:23:08;;;;;;;8.77;5.30;;;;;;;19.66;67.74;99822.25;4989832;28;20252;-90
2022/07/20 05:25:38;;;;;;;7.27;5.30;;;;;;;18.89;66.65;99674.75;4988173;28;20310;-88
2022/07/20 05:28:04;;;;;;;10.70;5.20;;;;;;;19.60;65.74;99775.94;4971658;28;20581;-89
2022/07/20 05:30:30;;;;;;;6.80;4.90;;;;;;;18.43;65.19;99560.31;4968024;28;20200;-86
2022/07/20 05:32:55;;;;;;;9.27;5.20;;;;;;;19.35;64.31;99664.28;4962989;28;20351;-88
2022/07/20 05:35:21;;;;;;;7.17;4.90;;;;;;;20.02;62.54;99755.06;4961608;28;20196;-88
2022/07/20 05:37:46;;;;;;;7.23;4.60;;;;;;;19.36;62.33;99653.19;4972732;28;20195;-89
2022/07/20 05:40:13;;;;;;;7.57;4.70;;;;;;;19.96;61.71;99726.72;4973348;28;20204;-88
2022/07/20 05:42:38;;;;;;;6.33;4.50;;;;;;;19.60;59.90;99584.97;4988696;28;20198;-88
2022/07/20 05:45:04;;;;;;;7.20;4.60;;;;;;;19.41;58.86;99542.84;4987668;28;20212;-87
2022/07/20 05:47:29;;;;;;;4.70;4.20;;;;;;;20.44;58.74;99700.63;4973774;28;20892;-87
2022/07/20 05:49:57;;;;;;;6.30;4.30;;;;;;;21.30;58.38;99835.25;4976359;28;20192;-89
2022/07/20 05:52:22;;;;;;;7.97;4.27;;;;;;;20.41;59.18;99724.63;4973711;28;20578;-88
2022/07/20 05:54:47;;;;;;;10.10;4.50;;;;;;;19.18;56.95;99406.50;4971877;28;20202;-87
2022/07/20 05:57:13;;;;;;;5.93;4.33;;;;;;;21.87;55.58;99821.91;4972154;28;20188;-87
2022/07/20 05:59:39;;;;;;;6.57;4.10;;;;;;;21.81;55.06;99833.88;4973850;28;20327;-88
2022/07/20 06:02:05;;;;;;;5.87;3.93;;;;;;;19.76;54.82;99510.66;4975101;28;20226;-87
2022/07/20 06:04:30;;;;;;;6.47;4.07;;;;;;;21.17;55.09;99738.16;4976884;28;20215;-87
2022/07/20 06:06:56;;;;;;;5.43;4.00;;;;;;;21.58;55.03;99844.03;4977809;28;20641;-87
2022/07/20 06:09:21;;;;;;;6.63;4.00;;;;;;;20.48;55.21;99595.25;4975750;28;20184;-87
2022/07/20 06:11:47;;;;;;;7.57;4.30;;;;;;;22.01;54.29;99783.28;4978799;28;20200;-85
2022/07/20 06:14:12;;;;;;;7.23;4.37;;;;;;;22.33;52.75;99761.06;4967598;28;20251;-88
2022/07/20 06:16:38;;;;;;;8.33;4.23;;;;;;;21.95;50.75;99613.94;4968477;28;20409;-86
2022/07/20 06:19:03;;;;;;;6.73;4.40;;;;;;;22.67;50.53;99729.28;4979080;28;20239;-86
2022/07/20 06:21:28;;;;;;;9.23;4.57;;;;;;;21.11;49.82;99411.97;4974319;28;20279;-89
2022/07/20 06:23:54;;;;;;;6.60;4.20;;;;;;;22.45;50.68;99685.34;4973509;28;20559;-86
2022/07/20 06:26:21;;;;;;;6.47;4.77;;;;;;;22.05;49.67;99548.66;4974847;28;20207;-87
2022/07/20 06:28:47;;;;;;;4.80;4.10;;;;;;;22.57;49.69;99706.88;4959411;29;20550;-88
2022/07/20 06:31:12;;;;;;;6.23;4.40;;;;;;;22.56;50.60;99720.63;4960238;28;20188;-89
2022/07/20 06:33:38;;;;;;;9.73;5.30;;;;;;;21.78;49.71;99541.72;4978851;28;20241;-87
2022/07/20 06:36:04;;;;;;;6.83;4.70;;;;;;;20.65;48.55;99289.19;4982358;28;20203;-87
2022/07/20 06:38:29;;;;;;;9.33;4.50;;;;;;;23.55;47.78;99724.00;4982487;28;20291;-86
2022/07/20 06:40:55;;;;;;;8.50;5.10;;;;;;;21.78;47.48;99430.88;4980772;28;20786;-88
2022/07/20 06:43:22;;;;;;;7.50;4.60;;;;;;;22.56;48.04;99555.47;4977514;28;20206;-88
2022/07/20 06:45:49;;;;;;;12.83;5.03;;;;;;;24.38;48.01;99823.72;4984823;28;20215;-90
2022/07/20 06:48:15;;;;;;;9.93;5.10;;;;;;;22.15;46.36;99423.13;4983817;28;20203;-88
2022/07/20 06:50:40;;;;;;;6.03;4.13;;;;;;;23.97;44.92;99635.91;4982515;28;20192;-87
2022/07/20 06:53:06;;;;;;;6.33;4.00;;;;;;;23.20;46.76;99606.97;4982712;28;20218;-90
2022/07/20 06:55:31;;;;;;;6.90;4.20;;;;;;;22.25;47.25;99448.03;4995148;28;20188;-86
2022/07/20 06:57:57;;;;;;;5.93;4.33;;;;;;;24.13;45.99;99710.84;4983784;28;20188;-87
2022/07/20 07:00:22;;;;;;;5.60;3.50;;;;;;;24.30;45.43;99750.44;4981277;28;20250;-86
2022/07/20 07:02:48;;;;;;;5.20;3.70;;;;;;;23.40;45.56;99625.88;4980962;28;20229;-87
2022/07/20 07:05:13;;;;;;;5.73;3.70;;;;;;;24.56;44.44;99707.09;4979887;28;20234;-86
2022/07/20 07:07:39;;;;;;;8.17;3.93;;;;;;;24.22;43.91;99640.94;4992088;28;20263;-87
2022/07/20 07:10:05;;;;;;;7.03;3.73;;;;;;;25.56;43.16;99771.00;4978256;28;20347;-86
2022/07/20 07:12:30;;;;;;;4.17;3.47;;;;;;;24.91;43.48;99712.03;4980030;28;20227;-87
2022/07/20 07:14:55;;;;;;;4.97;3.70;;;;;;;23.84;44.93;99586.84;4967426;28;20274;-86
2022/07/20 07:17:24;;;;;;;7.03;4.40;;;;;;;25.84;44.24;99818.25;4980619;28;20252;-87
2022/07/20 07:19:49;;;;;;;7.10;3.50;;;;;;;23.82;44.13;99552.38;4977483;28;20180;-87
2022/07/20 07:22:14;;;;;;;5.50;3.60;;;;;;;23.32;43.92;99452.72;4976455;28;20197;-87
2022/07/20 07:24:40;;;;;;;4.77;3.47;;;;;;;24.61;44.17;99671.69;4976307;28;20696;-87
2022/07/20 07:27:06;;;;;;;4.90;3.40;;;;;;;25.33;44.10;99767.75;4976445;28;20195;-87
2022/07/20 07:29:32;;;;;;;7.63;3.63;;;;;;;25.85;43.67;99807.00;4977608;28;20641;-88
2022/07/20 07:32:00;;;;;;;4.00;3.53;;;;;;;25.42;43.61;99746.91;4980368;28;20228;-88
2022/07/20 07:34:26;;;;;;;4.73;3.40;;;;;;;25.83;43.45;99755.13;4975757;28;20181;-89
2022/07/20 07:36:52;;;;;;;3.93;3.40;;;;;;;25.67;41.75;99637.75;4974519;28;20183;-88
2022/07/20 07:39:17;;;;;;;6.07;3.30;;;;;;;25.97;41.21;99631.25;4971949;28;20188;-88
2022/07/20 07:41:43;;;;;;;5.07;3.67;;;;;;;25.98;40.99;99645.97;4976393;28;20270;-88
2022/07/20 07:44:09;;;;;;;5.83;3.60;;;;;;;26.42;40.55;99654.81;4978791;28;20191;-88
2022/07/20 07:46:34;;;;;;;5.00;3.20;;;;;;;27.04;39.85;99768.13;4981212;28;20180;-87
2022/07/20 07:49:00;;;;;;;3.22;2.92;;;;;;;25.60;39.72;99471.88;4982531;28;20219;-87
2022/07/20 07:51:25;;;;;;;7.90;3.55;;;;;;;27.30;39.02;99755.53;4980162;28;20251;-88
2022/07/20 07:53:51;;;;;;;7.57;3.50;;;;;;;26.33;38.67;99559.75;4977394;28;20243;-88
2022/07/20 07:56:16;;;;;;;7.45;3.85;;;;;;;27.05;38.26;99671.06;4976947;28;20197;-88
2022/07/20 07:58:42;;;;;;;5.25;3.22;;;;;;;28.03;38.24;99755.00;4976912;28;20252;-89
2022/07/20 08:01:07;;;;;;;5.18;3.10;;;;;;;27.81;38.02;99745.88;4976059;28;20687;-87
2022/07/20 08:03:32;;;;;;;11.88;3.20;;;;;;;26.41;37.59;99428.06;4976741;28;20607;-87
2022/07/20 08:05:58;;;;;;;4.60;3.15;;;;;;;28.03;37.43;99687.31;4977638;28;20211;-87
2022/07/20 08:08:23;;;;;;;8.30;3.13;;;;;;;28.57;35.49;99706.84;4967637;28;20205;-86
2022/07/20 08:10:49;;;;;;;5.88;3.20;;;;;;;27.96;37.30;99696.13;4956497;28;20196;-88
2022/07/20 08:13:14;;;;;;;4.82;3.33;;;;;;;28.80;36.61;99761.06;4959950;28;20225;-89
2022/07/20 08:15:40;;;;;;;7.28;3.70;;;;;;;28.41;36.17;99632.56;4947863;28;20292;-87
2022/07/20 08:18:06;;;;;;;3.97;3.58;;;;;;;28.37;36.63;99776.81;4966317;28;20270;-88
2022/07/20 08:20:32;;;;;;;6.90;3.53;;;;;;;27.93;37.47;99758.66;4975678;28;20191;-86
2022/07/20 08:22:58;;;;;;;6.78;3.08;;;;;;;28.16;35.23;99769.44;4978865;28;20214;-86
2022/07/20 08:25:23;;;;;;;3.95;3.08;;;;;;;28.04;34.07;99636.97;4994077;28;20721;-88
2022/07/20 08:27:49;;;;;;;3.97;3.03;;;;;;;28.18;33.57;99613.19;4979903;28;20652;-87
2022/07/20 08:30:16;;;;;;;4.93;2.88;;;;;;;29.17;33.74;99772.25;4980728;28;20189;-88
2022/07/20 08:32:42;;;;;;;6.28;3.10;;;;;;;28.28;33.56;99568.66;4978215;28;20672;-87
2022/07/20 08:35:07;;;;;;;8.45;3.22;;;;;;;28.98;33.53;99611.16;4978432;28;20183;-88
2022/07/20 08:37:33;;;;;;;3.83;2.78;;;;;;;29.71;32.10;99676.00;4978894;28;20680;-89
2022/07/20 08:39:58;;;;;;;4.90;3.22;;;;;;;30.31;32.95;99737.75;4977937;28;20197;-89
2022/07/20 08:42:24;;;;;;;5.70;2.72;;;;;;;28.15;32.11;99306.03;4977527;28;20181;-87
2022/07/20 08:44:50;;;;;;;5.82;3.60;;;;;;;31.09;31.66;99762.28;4977251;28;20209;-88
2022/07/20 08:47:16;;;;;;;4.65;2.70;;;;;;;29.01;31.11;99454.59;4979654;28;20178;-88
2022/07/20 08:49:47;;;;;;;4.53;2.63;;;;;;;30.30;31.04;99768.25;4977964;28;20219;-88
2022/07/20 08:52:13;;;;;;;6.05;2.67;;;;;;;30.22;30.52;99677.94;4974672;28;20187;-88
2022/07/20 08:54:39;;;;;;;6.60;3.80;;;;;;;29.46;30.35;99475.84;4975743;28;20270;-89
2022/07/20 08:57:15;;;;;;;6.45;2.80;;;;;;;30.37;30.02;99672.28;4970868;28;20683;-88
2022/07/20 08:59:40;;;;;;;4.03;2.50;;;;;;;31.19;28.91;99742.75;4988821;28;20191;-89
2022/07/20 09:02:08;;;;;;;5.72;2.63;;;;;;;31.34;29.19;99753.53;4974033;28;20229;-88
2022/07/20 09:04:50;;;;;;;3.45;2.40;;;;;;;30.51;28.95;99560.28;4973894;28;20260;-88
2022/07/20 09:07:16;;;;;;;5.32;2.58;;;;;;;31.68;29.03;99749.72;4964685;28;20278;-89
2022/07/20 09:09:41;;;;;;;3.28;2.97;;;;;;;29.85;28.50;99490.25;4975861;28;20231;-87
2022/07/20 09:12:07;;;;;;;3.42;2.50;;;;;;;29.95;28.46;99545.63;4975970;28;20174;-89
2022/07/20 09:14:40;;;;;;;7.15;2.50;;;;;;;29.87;28.42;99558.94;4974419;28;20558;-87
2022/07/20 09:17:21;;;;;;;4.45;2.60;;;;;;;29.18;29.32;99475.81;4974435;28;20176;-85
2022/07/20 09:20:03;;;;;;;3.35;2.50;;;;;;;30.77;28.66;99650.88;4974442;28;20690;-86
2022/07/20 09:22:38;;;;;;;5.28;2.80;;;;;;;31.16;28.99;99738.47;4973146;28;20171;-89
2022/07/20 09:25:13;;;;;;;5.18;2.65;;;;;;;28.61;29.28;99394.97;4972974;28;20253;-87
2022/07/20 09:27:39;;;;;;;3.03;2.50;;;;;;;30.90;29.22;99723.63;4978359;28;20181;-88
2022/07/20 09:30:12;;;;;;;3.75;2.65;;;;;;;31.31;29.12;99730.09;4974128;28;20174;-87
2022/07/20 09:32:54;;;;;;;2.92;2.60;;;;;;;31.23;28.42;99712.97;4971880;28;20189;-86
2022/07/20 09:35:22;;;;;;;5.10;2.78;;;;;;;31.03;28.54;99640.41;4973567;28;20182;-87
2022/07/20 09:37:48;;;;;;;6.15;2.70;;;;;;;31.44;28.57;99699.09;4973503;28;20221;-86
2022/07/20 09:40:14;;;;;;;5.25;2.60;;;;;;;31.77;28.21;99742.41;4973975;28;20554;-88
2022/07/20 09:42:43;;;;;;;5.15;2.63;;;;;;;32.05;27.69;99729.16;4973329;28;20543;-88
2022/07/20 09:45:26;;;;;;;5.93;2.85;;;;;;;31.11;27.62;99494.47;4972015;28;20580;-87
2022/07/20 09:48:09;;;;;;;5.00;2.70;;;;;;;31.67;27.62;99591.78;4987926;28;20622;-86
2022/07/20 09:50:40;;;;;;;6.53;2.65;;;;;;;31.17;27.57;99543.09;4973569;28;20175;-88
2022/07/20 09:53:07;;;;;;;5.40;2.95;;;;;;;30.36;27.59;99457.16;4973415;28;20546;-87
2022/07/20 09:55:33;;;;;;;9.05;3.00;;;;;;;32.43;27.68;99709.28;4965227;28;20694;-86
2022/07/20 09:57:59;;;;;;;6.90;2.80;;;;;;;32.35;27.49;99672.91;4953817;28;20227;-89
2022/07/20 10:00:25;;;;;;;4.60;2.95;;;;;;;30.82;27.12;99503.38;4950893;28;20226;-86
2022/07/20 10:02:55;;;;;;;5.53;2.92;;;;;;;31.13;27.91;99549.34;4969931;28;20234;-87
2022/07/20 10:05:22;;;;;;;8.02;3.75;;;;;;;30.93;27.21;99448.94;4970625;28;20219;-87
2022/07/20 10:07:48;;;;;;;6.07;2.80;;;;;;;31.31;27.27;99454.47;4971152;28;20185;-86
2022/07/20 10:10:14;;;;;;;7.55;2.75;;;;;;;32.18;27.46;99624.69;4970079;28;20198;-86
2022/07/20 10:12:39;;;;;;;3.75;2.72;;;;;;;32.18;27.32;99596.72;4971726;28;20183;-86
2022/07/20 10:15:11;;;;;;;5.82;2.95;;;;;;;31.89;27.28;99553.34;4970782;28;20223;-87
2022/07/20 10:17:38;;;;;;;4.22;2.60;;;;;;;32.01;27.01;99615.75;4970480;28;20246;-87
2022/07/20 10:20:07;;;;;;;5.55;2.90;;;;;;;32.01;27.63;99600.03;4971193;28;20620;-88
2022/07/20 10:22:33;;;;;;;4.55;2.97;;;;;;;31.87;27.65;99559.56;4955150;28;20255;-85
2022/07/20 10:25:17;;;;;;;4.57;2.95;;;;;;;32.91;26.70;99693.34;4967489;28;20650;-88
2022/07/20 10:27:43;;;;;;;5.55;3.38;;;;;;;31.77;27.64;99566.94;4951832;29;20669;-86
2022/07/20 10:30:19;;;;;;;7.80;3.03;;;;;;;32.04;27.90;99677.66;4951958;28;20191;-86
2022/07/20 10:32:58;;;;;;;7.97;2.60;;;;;;;31.78;27.56;99602.66;4952272;29;20680;-87
2022/07/20 10:35:27;;;;;;;4.70;3.00;;;;;;;32.11;28.09;99673.91;4954218;28;20190;-87
2022/07/20 10:37:54;;;;;;;4.30;3.13;;;;;;;32.05;27.93;99637.47;4972000;28;20668;-86
2022/07/20 10:40:22;;;;;;;5.88;3.10;;;;;;;31.47;27.64;99474.78;4970932;28;20179;-88
2022/07/20 10:43:14;;;;;;;5.50;3.03;;;;;;;32.57;27.68;99651.94;4971221;28;20648;-87
2022/07/20 10:45:40;;;;;;;6.43;2.90;;;;;;;32.93;27.49;99655.63;4969355;28;20242;-88
2022/07/20 10:48:11;;;;;;;3.13;2.60;;;;;;;32.48;27.58;99647.03;4951100;28;20266;-87
2022/07/20 10:50:42;;;;;;;5.07;2.50;;;;;;;31.58;27.91;99516.22;4962115;28;20180;-89
2022/07/20 10:53:11;;;;;;;5.57;2.95;;;;;;;32.31;28.26;99645.09;4963616;28;20801;-87
2022/07/20 10:55:36;;;;;;;4.85;2.92;;;;;;;31.59;28.06;99528.38;4956608;28;20246;-89
2022/07/20 10:58:11;;;;;;;6.75;2.80;;;;;;;32.08;28.35;99584.94;4987662;28;20199;-87
2022/07/20 11:00:39;;;;;;;4.40;2.70;;;;;;;32.25;27.75;99560.66;4959826;28;20564;-87
2022/07/20 11:03:11;;;;;;;5.30;2.88;;;;;;;32.21;27.55;99633.31;4954116;28;20704;-86
2022/07/20 11:05:38;;;;;;;4.70;2.70;;;;;;;30.60;28.38;99376.16;4971643;28;20214;-85
2022/07/20 11:08:07;;;;;;;5.75;2.88;;;;;;;31.34;28.51;99501.44;4971500;28;20175;-87
2022/07/20 11:10:33;;;;;;;6.53;3.17;;;;;;;29.69;28.34;99238.47;4958957;28;20648;-87
2022/07/20 11:13:02;;;;;;;5.90;2.85;;;;;;;32.27;28.55;99624.34;4983978;28;20206;-87
2022/07/20 11:15:51;;;;;;;4.15;3.08;;;;;;;32.22;28.89;99621.06;4971014;28;20207;-87
2022/07/20 11:18:28;;;;;;;4.60;2.80;;;;;;;31.47;28.82;99539.34;4971176;28;20300;-87
2022/07/20 11:20:57;;;;;;;5.57;2.75;;;;;;;30.84;28.56;99503.34;4972170;28;20198;-88
2022/07/20 11:23:25;;;;;;;4.53;2.70;;;;;;;31.17;28.97;99558.81;4975772;28;20675;-90
2022/07/20 11:25:55;;;;;;;5.10;2.88;;;;;;;31.77;29.02;99606.22;4975910;28;20215;-87
2022/07/20 11:28:45;;;;;;;3.67;3.05;;;;;;;32.08;28.09;99605.91;4972917;28;20259;-89
2022/07/20 11:31:11;;;;;;;4.95;2.95;;;;;;;31.54;28.34;99463.13;4989484;28;20196;-87
2022/07/20 11:33:39;;;;;;;4.13;3.00;;;;;;;32.40;27.55;99560.84;4974743;28;20255;-86
2022/07/20 11:36:12;;;;;;;11.45;3.35;;;;;;;31.37;28.14;99386.19;4975996;28;20208;-86